EDDS/STR METAR and TAF weather

Enter ICAO airport designator
Station Type Date Time Source
EDDS METAR 2019/02/23 03:20 UTC NOAA

EDDS 230320Z 06005KT CAVOK 01/00 Q1037


Station Type Date Time Source
EDDS Decoded METAR 2019/02/23 03:20 UTC NOAA

Stuttgart-Echterdingen, Germany (EDDS) 48-41N 009-13E 391M
Feb 22, 2019 - 10:20 PM EST / 2019.02.23 0320 UTC
Wind: from the ENE (060 degrees) at 6 MPH (5 KT):0
Visibility: greater than 7 mile(s):0
Temperature: 33 F (1 C)
Windchill: 26 F (-3 C):1
Dew Point: 32 F (0 C)
Relative Humidity: 93%
Pressure (altimeter): 30.62 in. Hg (1037 hPa)
ob: EDDS 230320Z 06005KT CAVOK 01/00 Q1037
cycle: 3

Station Type Date Time Source
EDDS TAF 2019/02/22 18:27 UTC NOAA

TAF EDDS 221700Z 2218/2318 01005KT CAVOK
BECMG 2218/2220 07005KT
BECMG 2307/2309 08010KT


Example: see airport list